sensor_id;sensor_type;location;lat;lon;timestamp;P1;durP1;ratioP1;P2;durP2;ratioP2
57297;SDS011;43147;50.972;18.210;2022-11-18T00:01:03;9.80;;;7.90;;
57297;SDS011;43147;50.972;18.210;2022-11-18T00:03:30;13.40;;;8.10;;
57297;SDS011;43147;50.972;18.210;2022-11-18T00:05:55;26.30;;;15.60;;
57297;SDS011;43147;50.972;18.210;2022-11-18T00:08:22;13.50;;;9.20;;
57297;SDS011;43147;50.972;18.210;2022-11-18T00:10:48;15.20;;;9.10;;
57297;SDS011;43147;50.972;18.210;2022-11-18T00:13:13;15.40;;;9.10;;
57297;SDS011;43147;50.972;18.210;2022-11-18T00:16:04;25.50;;;13.20;;
57297;SDS011;43147;50.972;18.210;2022-11-18T00:18:32;16.20;;;10.30;;
57297;SDS011;43147;50.972;18.210;2022-11-18T00:21:00;20.20;;;13.10;;
57297;SDS011;43147;50.972;18.210;2022-11-18T00:23:27;11.90;;;8.70;;
57297;SDS011;43147;50.972;18.210;2022-11-18T00:25:53;11.90;;;7.90;;
57297;SDS011;43147;50.972;18.210;2022-11-18T00:28:18;15.00;;;9.10;;
57297;SDS011;43147;50.972;18.210;2022-11-18T00:30:44;13.70;;;8.60;;
57297;SDS011;43147;50.972;18.210;2022-11-18T00:33:09;13.20;;;8.40;;
57297;SDS011;43147;50.972;18.210;2022-11-18T00:35:35;21.80;;;12.90;;
57297;SDS011;43147;50.972;18.210;2022-11-18T00:38:00;12.40;;;9.10;;
57297;SDS011;43147;50.972;18.210;2022-11-18T00:40:26;12.30;;;9.80;;
57297;SDS011;43147;50.972;18.210;2022-11-18T00:42:51;16.40;;;10.80;;
57297;SDS011;43147;50.972;18.210;2022-11-18T00:45:17;15.40;;;10.20;;
57297;SDS011;43147;50.972;18.210;2022-11-18T00:47:43;13.70;;;10.80;;
57297;SDS011;43147;50.972;18.210;2022-11-18T00:50:08;20.60;;;12.60;;
57297;SDS011;43147;50.972;18.210;2022-11-18T00:52:34;22.30;;;13.20;;
57297;SDS011;43147;50.972;18.210;2022-11-18T00:55:00;19.50;;;13.10;;
57297;SDS011;43147;50.972;18.210;2022-11-18T00:57:25;19.30;;;11.60;;
57297;SDS011;43147;50.972;18.210;2022-11-18T00:59:51;17.60;;;11.00;;
57297;SDS011;43147;50.972;18.210;2022-11-18T01:02:17;17.50;;;11.30;;
57297;SDS011;43147;50.972;18.210;2022-11-18T01:04:43;20.90;;;12.30;;
57297;SDS011;43147;50.972;18.210;2022-11-18T01:07:08;13.20;;;9.30;;
57297;SDS011;43147;50.972;18.210;2022-11-18T01:09:34;17.10;;;10.80;;
57297;SDS011;43147;50.972;18.210;2022-11-18T01:11:59;14.60;;;10.40;;
57297;SDS011;43147;50.972;18.210;2022-11-18T01:14:43;15.20;;;10.50;;
57297;SDS011;43147;50.972;18.210;2022-11-18T01:17:09;16.90;;;11.20;;
57297;SDS011;43147;50.972;18.210;2022-11-18T01:19:35;14.10;;;10.10;;
57297;SDS011;43147;50.972;18.210;2022-11-18T01:22:01;13.50;;;8.90;;
57297;SDS011;43147;50.972;18.210;2022-11-18T01:24:30;11.30;;;8.70;;
57297;SDS011;43147;50.972;18.210;2022-11-18T01:26:57;11.80;;;9.00;;
57297;SDS011;43147;50.972;18.210;2022-11-18T01:29:23;11.00;;;9.30;;
57297;SDS011;43147;50.972;18.210;2022-11-18T01:31:48;16.10;;;10.40;;
57297;SDS011;43147;50.972;18.210;2022-11-18T01:34:14;15.90;;;10.20;;
57297;SDS011;43147;50.972;18.210;2022-11-18T01:36:39;14.70;;;10.40;;
57297;SDS011;43147;50.972;18.210;2022-11-18T01:39:05;14.20;;;10.50;;
57297;SDS011;43147;50.972;18.210;2022-11-18T01:41:30;18.30;;;11.00;;
57297;SDS011;43147;50.972;18.210;2022-11-18T01:46:29;21.20;;;11.80;;
57297;SDS011;43147;50.972;18.210;2022-11-18T01:49:03;17.10;;;11.10;;
57297;SDS011;43147;50.972;18.210;2022-11-18T01:51:32;14.10;;;10.30;;
57297;SDS011;43147;50.972;18.210;2022-11-18T01:54:07;18.00;;;11.20;;
57297;SDS011;43147;50.972;18.210;2022-11-18T01:56:36;33.30;;;17.50;;
57297;SDS011;43147;50.972;18.210;2022-11-18T01:59:07;45.40;;;19.10;;
57297;SDS011;43147;50.972;18.210;2022-11-18T02:01:35;29.20;;;14.90;;
57297;SDS011;43147;50.972;18.210;2022-11-18T02:04:01;23.40;;;14.10;;
57297;SDS011;43147;50.972;18.210;2022-11-18T02:06:26;17.00;;;10.20;;
57297;SDS011;43147;50.972;18.210;2022-11-18T02:08:52;13.00;;;8.90;;
57297;SDS011;43147;50.972;18.210;2022-11-18T02:11:19;17.00;;;11.10;;
57297;SDS011;43147;50.972;18.210;2022-11-18T02:14:03;20.50;;;10.20;;
57297;SDS011;43147;50.972;18.210;2022-11-18T02:19:10;15.30;;;8.90;;
57297;SDS011;43147;50.972;18.210;2022-11-18T02:24:29;10.20;;;8.40;;
57297;SDS011;43147;50.972;18.210;2022-11-18T02:30:02;15.30;;;9.30;;
57297;SDS011;43147;50.972;18.210;2022-11-18T02:32:33;12.50;;;9.20;;
57297;SDS011;43147;50.972;18.210;2022-11-18T02:35:13;13.40;;;9.10;;
57297;SDS011;43147;50.972;18.210;2022-11-18T02:37:45;17.60;;;9.50;;
57297;SDS011;43147;50.972;18.210;2022-11-18T02:43:02;12.60;;;8.90;;
57297;SDS011;43147;50.972;18.210;2022-11-18T02:45:30;27.60;;;12.70;;
57297;SDS011;43147;50.972;18.210;2022-11-18T02:47:56;26.40;;;12.20;;
57297;SDS011;43147;50.972;18.210;2022-11-18T02:50:27;13.00;;;7.50;;
57297;SDS011;43147;50.972;18.210;2022-11-18T02:52:56;18.70;;;10.70;;
57297;SDS011;43147;50.972;18.210;2022-11-18T02:55:22;13.40;;;8.70;;
57297;SDS011;43147;50.972;18.210;2022-11-18T02:57:49;11.10;;;8.10;;
57297;SDS011;43147;50.972;18.210;2022-11-18T03:00:16;11.90;;;9.00;;
57297;SDS011;43147;50.972;18.210;2022-11-18T03:02:44;12.40;;;8.70;;
57297;SDS011;43147;50.972;18.210;2022-11-18T03:05:22;12.10;;;9.10;;
57297;SDS011;43147;50.972;18.210;2022-11-18T03:08:12;10.90;;;8.20;;
57297;SDS011;43147;50.972;18.210;2022-11-18T03:10:40;10.60;;;7.10;;
57297;SDS011;43147;50.972;18.210;2022-11-18T03:13:31;12.90;;;8.60;;
57297;SDS011;43147;50.972;18.210;2022-11-18T03:16:03;12.60;;;8.90;;
57297;SDS011;43147;50.972;18.210;2022-11-18T03:18:34;13.30;;;10.20;;
57297;SDS011;43147;50.972;18.210;2022-11-18T03:21:23;16.00;;;9.00;;
57297;SDS011;43147;50.972;18.210;2022-11-18T03:26:35;16.30;;;10.60;;
57297;SDS011;43147;50.972;18.210;2022-11-18T03:29:07;19.20;;;10.80;;
57297;SDS011;43147;50.972;18.210;2022-11-18T03:31:53;15.00;;;10.70;;
57297;SDS011;43147;50.972;18.210;2022-11-18T03:34:28;14.10;;;9.60;;
57297;SDS011;43147;50.972;18.210;2022-11-18T03:36:59;12.90;;;9.20;;
57297;SDS011;43147;50.972;18.210;2022-11-18T03:39:26;13.40;;;9.20;;
57297;SDS011;43147;50.972;18.210;2022-11-18T03:41:58;14.70;;;9.30;;
57297;SDS011;43147;50.972;18.210;2022-11-18T03:44:32;16.90;;;10.70;;
57297;SDS011;43147;50.972;18.210;2022-11-18T03:47:05;20.80;;;12.10;;
57297;SDS011;43147;50.972;18.210;2022-11-18T03:49:39;25.00;;;12.80;;
57297;SDS011;43147;50.972;18.210;2022-11-18T03:52:13;17.40;;;9.60;;
57297;SDS011;43147;50.972;18.210;2022-11-18T03:54:42;19.40;;;11.60;;
57297;SDS011;43147;50.972;18.210;2022-11-18T03:57:11;21.90;;;11.60;;
57297;SDS011;43147;50.972;18.210;2022-11-18T03:59:42;19.30;;;12.30;;
57297;SDS011;43147;50.972;18.210;2022-11-18T04:02:11;20.70;;;12.30;;
57297;SDS011;43147;50.972;18.210;2022-11-18T04:04:38;22.00;;;13.80;;
57297;SDS011;43147;50.972;18.210;2022-11-18T04:07:25;15.80;;;10.50;;
57297;SDS011;43147;50.972;18.210;2022-11-18T04:10:10;16.50;;;9.70;;
57297;SDS011;43147;50.972;18.210;2022-11-18T04:12:39;16.10;;;9.40;;
57297;SDS011;43147;50.972;18.210;2022-11-18T04:15:08;17.40;;;9.30;;
57297;SDS011;43147;50.972;18.210;2022-11-18T04:17:35;17.60;;;11.30;;
57297;SDS011;43147;50.972;18.210;2022-11-18T04:20:00;25.20;;;13.90;;
57297;SDS011;43147;50.972;18.210;2022-11-18T04:22:27;13.80;;;9.60;;
57297;SDS011;43147;50.972;18.210;2022-11-18T04:24:52;20.50;;;12.70;;
57297;SDS011;43147;50.972;18.210;2022-11-18T04:27:18;19.50;;;11.60;;
57297;SDS011;43147;50.972;18.210;2022-11-18T04:29:43;24.50;;;13.30;;
57297;SDS011;43147;50.972;18.210;2022-11-18T04:32:08;21.60;;;13.10;;
57297;SDS011;43147;50.972;18.210;2022-11-18T04:34:34;22.20;;;12.50;;
57297;SDS011;43147;50.972;18.210;2022-11-18T04:37:00;23.30;;;12.40;;
57297;SDS011;43147;50.972;18.210;2022-11-18T04:39:25;28.70;;;13.50;;
57297;SDS011;43147;50.972;18.210;2022-11-18T04:41:51;21.30;;;11.90;;
57297;SDS011;43147;50.972;18.210;2022-11-18T04:46:48;38.90;;;18.50;;
57297;SDS011;43147;50.972;18.210;2022-11-18T04:49:13;37.20;;;18.20;;
57297;SDS011;43147;50.972;18.210;2022-11-18T04:51:40;29.30;;;15.40;;
57297;SDS011;43147;50.972;18.210;2022-11-18T04:54:06;27.20;;;14.70;;
57297;SDS011;43147;50.972;18.210;2022-11-18T04:56:32;27.80;;;13.70;;
57297;SDS011;43147;50.972;18.210;2022-11-18T04:58:58;23.70;;;12.00;;
57297;SDS011;43147;50.972;18.210;2022-11-18T05:01:25;32.30;;;14.70;;
57297;SDS011;43147;50.972;18.210;2022-11-18T05:03:51;20.20;;;11.80;;
57297;SDS011;43147;50.972;18.210;2022-11-18T05:06:16;25.60;;;13.20;;
57297;SDS011;43147;50.972;18.210;2022-11-18T05:08:41;19.30;;;12.00;;
57297;SDS011;43147;50.972;18.210;2022-11-18T05:11:07;24.50;;;13.30;;
57297;SDS011;43147;50.972;18.210;2022-11-18T05:13:51;22.80;;;11.40;;
57297;SDS011;43147;50.972;18.210;2022-11-18T05:16:17;24.30;;;13.40;;
57297;SDS011;43147;50.972;18.210;2022-11-18T05:18:43;26.10;;;14.90;;
57297;SDS011;43147;50.972;18.210;2022-11-18T05:21:08;31.00;;;16.20;;
57297;SDS011;43147;50.972;18.210;2022-11-18T05:23:35;27.40;;;14.90;;
57297;SDS011;43147;50.972;18.210;2022-11-18T05:26:02;30.20;;;14.60;;
57297;SDS011;43147;50.972;18.210;2022-11-18T05:28:30;28.50;;;15.20;;
57297;SDS011;43147;50.972;18.210;2022-11-18T05:30:55;24.60;;;13.90;;
57297;SDS011;43147;50.972;18.210;2022-11-18T05:33:21;25.20;;;12.60;;
57297;SDS011;43147;50.972;18.210;2022-11-18T05:35:46;33.60;;;14.20;;
57297;SDS011;43147;50.972;18.210;2022-11-18T05:38:12;28.80;;;14.50;;
57297;SDS011;43147;50.972;18.210;2022-11-18T05:40:37;31.50;;;16.20;;
57297;SDS011;43147;50.972;18.210;2022-11-18T05:43:03;30.20;;;14.50;;
57297;SDS011;43147;50.972;18.210;2022-11-18T05:45:38;24.80;;;12.70;;
57297;SDS011;43147;50.972;18.210;2022-11-18T05:48:04;23.00;;;11.70;;
57297;SDS011;43147;50.972;18.210;2022-11-18T05:50:32;28.10;;;14.60;;
57297;SDS011;43147;50.972;18.210;2022-11-18T05:52:58;20.30;;;12.20;;
57297;SDS011;43147;50.972;18.210;2022-11-18T05:55:32;22.70;;;12.60;;
57297;SDS011;43147;50.972;18.210;2022-11-18T05:58:00;18.50;;;11.00;;
57297;SDS011;43147;50.972;18.210;2022-11-18T06:00:26;29.70;;;14.20;;
57297;SDS011;43147;50.972;18.210;2022-11-18T06:02:52;27.20;;;14.80;;
57297;SDS011;43147;50.972;18.210;2022-11-18T06:05:18;29.80;;;15.10;;
57297;SDS011;43147;50.972;18.210;2022-11-18T06:07:45;32.00;;;15.60;;
57297;SDS011;43147;50.972;18.210;2022-11-18T06:10:11;21.60;;;10.70;;
57297;SDS011;43147;50.972;18.210;2022-11-18T06:12:42;33.80;;;16.90;;
57297;SDS011;43147;50.972;18.210;2022-11-18T06:17:44;28.50;;;14.70;;
57297;SDS011;43147;50.972;18.210;2022-11-18T06:20:17;30.90;;;14.40;;
57297;SDS011;43147;50.972;18.210;2022-11-18T06:22:43;27.70;;;14.20;;
57297;SDS011;43147;50.972;18.210;2022-11-18T06:25:09;31.40;;;16.10;;
57297;SDS011;43147;50.972;18.210;2022-11-18T06:27:34;36.80;;;17.80;;
57297;SDS011;43147;50.972;18.210;2022-11-18T06:29:59;31.30;;;16.10;;
57297;SDS011;43147;50.972;18.210;2022-11-18T06:32:25;37.80;;;16.00;;
57297;SDS011;43147;50.972;18.210;2022-11-18T06:34:50;27.60;;;15.30;;
57297;SDS011;43147;50.972;18.210;2022-11-18T06:37:16;33.70;;;16.50;;
57297;SDS011;43147;50.972;18.210;2022-11-18T06:39:44;36.80;;;17.30;;
57297;SDS011;43147;50.972;18.210;2022-11-18T06:42:12;34.70;;;18.10;;
57297;SDS011;43147;50.972;18.210;2022-11-18T06:44:56;27.40;;;12.80;;
57297;SDS011;43147;50.972;18.210;2022-11-18T06:47:23;32.40;;;17.60;;
57297;SDS011;43147;50.972;18.210;2022-11-18T06:49:49;35.40;;;18.10;;
57297;SDS011;43147;50.972;18.210;2022-11-18T06:52:14;38.70;;;18.70;;
57297;SDS011;43147;50.972;18.210;2022-11-18T06:54:40;36.60;;;18.50;;
57297;SDS011;43147;50.972;18.210;2022-11-18T06:57:05;29.60;;;15.50;;
57297;SDS011;43147;50.972;18.210;2022-11-18T06:59:31;34.90;;;17.40;;
57297;SDS011;43147;50.972;18.210;2022-11-18T07:01:58;35.40;;;17.70;;
57297;SDS011;43147;50.972;18.210;2022-11-18T07:04:24;34.50;;;16.60;;
57297;SDS011;43147;50.972;18.210;2022-11-18T07:06:51;29.00;;;14.70;;
57297;SDS011;43147;50.972;18.210;2022-11-18T07:09:17;32.30;;;16.80;;
57297;SDS011;43147;50.972;18.210;2022-11-18T07:11:42;35.10;;;17.70;;
57297;SDS011;43147;50.972;18.210;2022-11-18T07:14:08;33.70;;;16.80;;
57297;SDS011;43147;50.972;18.210;2022-11-18T07:16:34;38.30;;;17.00;;
57297;SDS011;43147;50.972;18.210;2022-11-18T07:19:00;29.80;;;14.00;;
57297;SDS011;43147;50.972;18.210;2022-11-18T07:21:26;27.90;;;13.90;;
57297;SDS011;43147;50.972;18.210;2022-11-18T07:23:53;25.30;;;12.00;;
57297;SDS011;43147;50.972;18.210;2022-11-18T07:26:20;34.40;;;17.40;;
57297;SDS011;43147;50.972;18.210;2022-11-18T07:28:46;28.90;;;16.40;;
57297;SDS011;43147;50.972;18.210;2022-11-18T07:31:13;27.50;;;14.30;;
57297;SDS011;43147;50.972;18.210;2022-11-18T07:33:42;29.40;;;15.10;;
57297;SDS011;43147;50.972;18.210;2022-11-18T07:36:13;29.40;;;16.10;;
57297;SDS011;43147;50.972;18.210;2022-11-18T07:38:39;24.30;;;14.30;;
57297;SDS011;43147;50.972;18.210;2022-11-18T07:41:06;25.60;;;14.70;;
57297;SDS011;43147;50.972;18.210;2022-11-18T07:43:33;29.20;;;16.90;;
57297;SDS011;43147;50.972;18.210;2022-11-18T07:48:38;19.20;;;11.20;;
57297;SDS011;43147;50.972;18.210;2022-11-18T07:51:05;31.20;;;16.90;;
57297;SDS011;43147;50.972;18.210;2022-11-18T07:53:31;25.50;;;13.50;;
57297;SDS011;43147;50.972;18.210;2022-11-18T07:55:58;30.00;;;16.40;;
57297;SDS011;43147;50.972;18.210;2022-11-18T07:58:24;25.00;;;16.10;;
57297;SDS011;43147;50.972;18.210;2022-11-18T08:00:50;29.10;;;14.30;;
57297;SDS011;43147;50.972;18.210;2022-11-18T08:03:15;27.40;;;15.20;;
57297;SDS011;43147;50.972;18.210;2022-11-18T08:05:41;28.10;;;16.30;;
57297;SDS011;43147;50.972;18.210;2022-11-18T08:08:06;17.80;;;11.00;;
57297;SDS011;43147;50.972;18.210;2022-11-18T08:10:32;27.00;;;16.00;;
57297;SDS011;43147;50.972;18.210;2022-11-18T08:13:00;31.00;;;17.20;;
57297;SDS011;43147;50.972;18.210;2022-11-18T08:15:26;33.70;;;16.90;;
57297;SDS011;43147;50.972;18.210;2022-11-18T08:17:51;28.20;;;16.10;;
57297;SDS011;43147;50.972;18.210;2022-11-18T08:20:16;19.40;;;11.70;;
57297;SDS011;43147;50.972;18.210;2022-11-18T08:22:42;31.70;;;14.90;;
57297;SDS011;43147;50.972;18.210;2022-11-18T08:25:07;29.50;;;15.00;;
57297;SDS011;43147;50.972;18.210;2022-11-18T08:27:33;25.40;;;15.50;;
57297;SDS011;43147;50.972;18.210;2022-11-18T08:29:59;27.10;;;16.50;;
57297;SDS011;43147;50.972;18.210;2022-11-18T08:32:25;28.10;;;15.90;;
57297;SDS011;43147;50.972;18.210;2022-11-18T08:34:50;34.30;;;18.40;;
57297;SDS011;43147;50.972;18.210;2022-11-18T08:37:16;23.80;;;15.20;;
57297;SDS011;43147;50.972;18.210;2022-11-18T08:39:42;22.90;;;14.90;;
57297;SDS011;43147;50.972;18.210;2022-11-18T08:42:08;26.50;;;16.40;;
57297;SDS011;43147;50.972;18.210;2022-11-18T08:44:34;25.30;;;15.70;;
57297;SDS011;43147;50.972;18.210;2022-11-18T08:47:00;27.90;;;14.20;;
57297;SDS011;43147;50.972;18.210;2022-11-18T08:49:25;30.70;;;16.60;;
57297;SDS011;43147;50.972;18.210;2022-11-18T08:51:51;37.80;;;17.90;;
57297;SDS011;43147;50.972;18.210;2022-11-18T08:54:17;37.80;;;20.00;;
57297;SDS011;43147;50.972;18.210;2022-11-18T08:56:45;37.20;;;18.40;;
57297;SDS011;43147;50.972;18.210;2022-11-18T08:59:11;35.10;;;18.50;;
57297;SDS011;43147;50.972;18.210;2022-11-18T09:01:37;20.40;;;12.40;;
57297;SDS011;43147;50.972;18.210;2022-11-18T09:04:06;29.40;;;17.30;;
57297;SDS011;43147;50.972;18.210;2022-11-18T09:06:31;32.60;;;19.50;;
57297;SDS011;43147;50.972;18.210;2022-11-18T09:08:58;22.40;;;14.30;;
57297;SDS011;43147;50.972;18.210;2022-11-18T09:11:24;24.00;;;14.80;;
57297;SDS011;43147;50.972;18.210;2022-11-18T09:13:54;34.40;;;19.90;;
57297;SDS011;43147;50.972;18.210;2022-11-18T09:16:22;39.90;;;23.70;;
57297;SDS011;43147;50.972;18.210;2022-11-18T09:18:51;56.50;;;29.70;;
57297;SDS011;43147;50.972;18.210;2022-11-18T09:21:17;35.80;;;19.60;;
57297;SDS011;43147;50.972;18.210;2022-11-18T09:23:43;29.50;;;18.00;;
57297;SDS011;43147;50.972;18.210;2022-11-18T09:26:10;30.10;;;19.10;;
57297;SDS011;43147;50.972;18.210;2022-11-18T09:28:40;30.80;;;18.60;;
57297;SDS011;43147;50.972;18.210;2022-11-18T09:31:09;27.40;;;16.50;;
57297;SDS011;43147;50.972;18.210;2022-11-18T09:33:36;27.90;;;16.30;;
57297;SDS011;43147;50.972;18.210;2022-11-18T09:36:03;21.40;;;15.10;;
57297;SDS011;43147;50.972;18.210;2022-11-18T09:38:30;25.80;;;17.00;;
57297;SDS011;43147;50.972;18.210;2022-11-18T09:49:15;35.30;;;20.40;;
57297;SDS011;43147;50.972;18.210;2022-11-18T09:51:45;63.60;;;25.20;;
57297;SDS011;43147;50.972;18.210;2022-11-18T09:54:23;53.00;;;23.20;;
57297;SDS011;43147;50.972;18.210;2022-11-18T09:56:50;36.10;;;17.90;;
57297;SDS011;43147;50.972;18.210;2022-11-18T09:59:18;39.80;;;20.00;;
57297;SDS011;43147;50.972;18.210;2022-11-18T10:01:45;27.90;;;17.50;;
57297;SDS011;43147;50.972;18.210;2022-11-18T10:04:15;28.20;;;15.40;;
57297;SDS011;43147;50.972;18.210;2022-11-18T10:06:42;21.80;;;14.50;;
57297;SDS011;43147;50.972;18.210;2022-11-18T10:14:42;23.20;;;14.40;;
57297;SDS011;43147;50.972;18.210;2022-11-18T10:20:17;34.20;;;18.50;;
57297;SDS011;43147;50.972;18.210;2022-11-18T10:25:40;26.90;;;16.10;;
57297;SDS011;43147;50.972;18.210;2022-11-18T10:28:17;27.10;;;17.30;;
57297;SDS011;43147;50.972;18.210;2022-11-18T10:30:46;33.00;;;19.70;;
57297;SDS011;43147;50.972;18.210;2022-11-18T10:40:43;34.70;;;19.40;;
57297;SDS011;43147;50.972;18.210;2022-11-18T10:43:11;24.50;;;16.60;;
57297;SDS011;43147;50.972;18.210;2022-11-18T10:46:32;27.10;;;16.60;;
57297;SDS011;43147;50.972;18.210;2022-11-18T10:51:33;48.60;;;23.50;;
57297;SDS011;43147;50.972;18.210;2022-11-18T10:54:07;36.10;;;15.60;;
57297;SDS011;43147;50.972;18.210;2022-11-18T10:59:46;51.10;;;22.30;;
57297;SDS011;43147;50.972;18.210;2022-11-18T11:02:19;43.10;;;19.20;;
57297;SDS011;43147;50.972;18.210;2022-11-18T11:04:55;55.40;;;23.80;;
57297;SDS011;43147;50.972;18.210;2022-11-18T11:07:29;61.30;;;21.00;;
57297;SDS011;43147;50.972;18.210;2022-11-18T11:12:40;55.10;;;22.40;;
57297;SDS011;43147;50.972;18.210;2022-11-18T11:17:53;43.00;;;20.20;;
57297;SDS011;43147;50.972;18.210;2022-11-18T11:20:41;63.50;;;28.50;;
57297;SDS011;43147;50.972;18.210;2022-11-18T11:23:10;39.20;;;21.00;;
57297;SDS011;43147;50.972;18.210;2022-11-18T11:25:41;52.50;;;26.30;;
57297;SDS011;43147;50.972;18.210;2022-11-18T11:54:03;53.80;;;25.30;;
57297;SDS011;43147;50.972;18.210;2022-11-18T11:56:48;43.00;;;22.20;;
57297;SDS011;43147;50.972;18.210;2022-11-18T11:59:25;38.40;;;18.50;;
57297;SDS011;43147;50.972;18.210;2022-11-18T12:04:51;40.40;;;20.20;;
57297;SDS011;43147;50.972;18.210;2022-11-18T12:07:22;49.20;;;23.10;;
57297;SDS011;43147;50.972;18.210;2022-11-18T12:15:27;76.70;;;29.10;;
57297;SDS011;43147;50.972;18.210;2022-11-18T12:18:21;43.40;;;23.50;;
57297;SDS011;43147;50.972;18.210;2022-11-18T12:20:51;47.50;;;22.60;;
57297;SDS011;43147;50.972;18.210;2022-11-18T12:23:25;47.30;;;20.80;;
57297;SDS011;43147;50.972;18.210;2022-11-18T12:25:53;40.60;;;19.00;;
57297;SDS011;43147;50.972;18.210;2022-11-18T12:33:42;146.30;;;45.90;;
57297;SDS011;43147;50.972;18.210;2022-11-18T12:36:08;73.60;;;29.30;;
57297;SDS011;43147;50.972;18.210;2022-11-18T12:38:34;41.70;;;17.70;;
57297;SDS011;43147;50.972;18.210;2022-11-18T12:40:59;97.80;;;33.60;;
57297;SDS011;43147;50.972;18.210;2022-11-18T12:51:46;34.30;;;15.70;;
57297;SDS011;43147;50.972;18.210;2022-11-18T12:57:21;47.70;;;21.90;;
57297;SDS011;43147;50.972;18.210;2022-11-18T12:59:57;48.50;;;20.70;;
57297;SDS011;43147;50.972;18.210;2022-11-18T13:02:27;47.70;;;26.30;;
57297;SDS011;43147;50.972;18.210;2022-11-18T13:07:30;37.10;;;19.50;;
57297;SDS011;43147;50.972;18.210;2022-11-18T13:10:20;37.10;;;21.20;;
57297;SDS011;43147;50.972;18.210;2022-11-18T13:12:47;32.10;;;16.90;;
57297;SDS011;43147;50.972;18.210;2022-11-18T13:21:45;28.20;;;13.80;;
57297;SDS011;43147;50.972;18.210;2022-11-18T13:24:42;35.30;;;14.00;;
57297;SDS011;43147;50.972;18.210;2022-11-18T13:27:09;42.70;;;14.40;;
57297;SDS011;43147;50.972;18.210;2022-11-18T13:30:18;40.90;;;14.40;;
57297;SDS011;43147;50.972;18.210;2022-11-18T13:32:45;23.60;;;13.80;;
57297;SDS011;43147;50.972;18.210;2022-11-18T13:35:18;36.10;;;16.80;;
57297;SDS011;43147;50.972;18.210;2022-11-18T13:37:56;34.10;;;17.90;;
57297;SDS011;43147;50.972;18.210;2022-11-18T13:40:27;23.30;;;12.40;;
57297;SDS011;43147;50.972;18.210;2022-11-18T13:42:56;42.50;;;21.80;;
57297;SDS011;43147;50.972;18.210;2022-11-18T13:45:22;33.30;;;16.10;;
57297;SDS011;43147;50.972;18.210;2022-11-18T13:47:51;31.50;;;11.70;;
57297;SDS011;43147;50.972;18.210;2022-11-18T13:55:59;12.70;;;8.50;;
57297;SDS011;43147;50.972;18.210;2022-11-18T14:01:05;11.50;;;8.30;;
57297;SDS011;43147;50.972;18.210;2022-11-18T14:06:33;20.30;;;11.00;;
57297;SDS011;43147;50.972;18.210;2022-11-18T14:11:45;25.80;;;15.20;;
57297;SDS011;43147;50.972;18.210;2022-11-18T14:14:32;28.50;;;13.50;;
57297;SDS011;43147;50.972;18.210;2022-11-18T14:19:52;33.90;;;14.40;;
57297;SDS011;43147;50.972;18.210;2022-11-18T14:22:22;32.20;;;15.40;;
57297;SDS011;43147;50.972;18.210;2022-11-18T14:25:23;20.10;;;10.50;;
57297;SDS011;43147;50.972;18.210;2022-11-18T14:33:09;23.50;;;14.60;;
57297;SDS011;43147;50.972;18.210;2022-11-18T14:35:37;8.20;;;5.50;;
57297;SDS011;43147;50.972;18.210;2022-11-18T14:38:09;16.60;;;9.30;;
57297;SDS011;43147;50.972;18.210;2022-11-18T14:40:37;16.70;;;10.20;;
57297;SDS011;43147;50.972;18.210;2022-11-18T14:43:02;24.30;;;12.80;;
57297;SDS011;43147;50.972;18.210;2022-11-18T14:45:28;39.20;;;15.00;;
57297;SDS011;43147;50.972;18.210;2022-11-18T14:47:54;39.60;;;16.30;;
57297;SDS011;43147;50.972;18.210;2022-11-18T14:50:20;26.70;;;14.60;;
57297;SDS011;43147;50.972;18.210;2022-11-18T14:52:46;28.60;;;14.70;;
57297;SDS011;43147;50.972;18.210;2022-11-18T14:55:12;31.20;;;16.10;;
57297;SDS011;43147;50.972;18.210;2022-11-18T14:57:37;41.10;;;15.10;;
57297;SDS011;43147;50.972;18.210;2022-11-18T15:00:03;29.90;;;12.90;;
57297;SDS011;43147;50.972;18.210;2022-11-18T15:02:29;44.40;;;19.60;;
57297;SDS011;43147;50.972;18.210;2022-11-18T15:04:54;37.20;;;15.40;;
57297;SDS011;43147;50.972;18.210;2022-11-18T15:07:21;40.80;;;17.90;;
57297;SDS011;43147;50.972;18.210;2022-11-18T15:09:46;30.10;;;13.50;;
57297;SDS011;43147;50.972;18.210;2022-11-18T15:12:11;32.10;;;14.60;;
57297;SDS011;43147;50.972;18.210;2022-11-18T15:14:37;15.60;;;8.60;;
57297;SDS011;43147;50.972;18.210;2022-11-18T15:17:03;20.30;;;11.10;;
57297;SDS011;43147;50.972;18.210;2022-11-18T15:19:29;28.20;;;15.90;;
57297;SDS011;43147;50.972;18.210;2022-11-18T15:21:55;33.60;;;13.70;;
57297;SDS011;43147;50.972;18.210;2022-11-18T15:24:20;23.50;;;9.60;;
57297;SDS011;43147;50.972;18.210;2022-11-18T15:26:46;19.10;;;9.10;;
57297;SDS011;43147;50.972;18.210;2022-11-18T15:29:18;19.90;;;8.40;;
57297;SDS011;43147;50.972;18.210;2022-11-18T15:31:45;28.90;;;12.40;;
57297;SDS011;43147;50.972;18.210;2022-11-18T15:34:11;42.10;;;17.70;;
57297;SDS011;43147;50.972;18.210;2022-11-18T15:36:37;56.40;;;21.60;;
57297;SDS011;43147;50.972;18.210;2022-11-18T15:39:02;58.10;;;23.80;;
57297;SDS011;43147;50.972;18.210;2022-11-18T15:41:28;43.70;;;19.70;;
57297;SDS011;43147;50.972;18.210;2022-11-18T15:43:55;23.90;;;11.10;;
57297;SDS011;43147;50.972;18.210;2022-11-18T15:46:22;27.40;;;13.40;;
57297;SDS011;43147;50.972;18.210;2022-11-18T15:48:58;29.80;;;14.50;;
57297;SDS011;43147;50.972;18.210;2022-11-18T15:51:36;39.40;;;16.50;;
57297;SDS011;43147;50.972;18.210;2022-11-18T15:54:01;47.40;;;18.90;;
57297;SDS011;43147;50.972;18.210;2022-11-18T15:56:28;45.80;;;19.50;;
57297;SDS011;43147;50.972;18.210;2022-11-18T15:58:58;25.40;;;12.40;;
57297;SDS011;43147;50.972;18.210;2022-11-18T16:01:25;33.00;;;16.50;;
57297;SDS011;43147;50.972;18.210;2022-11-18T16:03:55;48.00;;;19.10;;
57297;SDS011;43147;50.972;18.210;2022-11-18T16:06:20;33.30;;;15.70;;
57297;SDS011;43147;50.972;18.210;2022-11-18T16:08:46;29.40;;;14.90;;
57297;SDS011;43147;50.972;18.210;2022-11-18T16:11:12;39.90;;;20.80;;
57297;SDS011;43147;50.972;18.210;2022-11-18T16:14:00;51.50;;;23.10;;
57297;SDS011;43147;50.972;18.210;2022-11-18T16:16:27;37.70;;;17.70;;
57297;SDS011;43147;50.972;18.210;2022-11-18T16:18:57;48.60;;;21.00;;
57297;SDS011;43147;50.972;18.210;2022-11-18T16:21:28;41.90;;;19.90;;
57297;SDS011;43147;50.972;18.210;2022-11-18T16:23:54;43.60;;;17.90;;
57297;SDS011;43147;50.972;18.210;2022-11-18T16:26:22;76.00;;;26.00;;
57297;SDS011;43147;50.972;18.210;2022-11-18T16:28:48;88.20;;;31.90;;
57297;SDS011;43147;50.972;18.210;2022-11-18T16:31:14;71.80;;;26.90;;
57297;SDS011;43147;50.972;18.210;2022-11-18T16:33:58;69.20;;;27.90;;
57297;SDS011;43147;50.972;18.210;2022-11-18T16:36:24;50.80;;;21.20;;
57297;SDS011;43147;50.972;18.210;2022-11-18T16:38:53;45.70;;;18.40;;
57297;SDS011;43147;50.972;18.210;2022-11-18T16:41:18;66.90;;;26.80;;
57297;SDS011;43147;50.972;18.210;2022-11-18T16:43:56;56.70;;;22.50;;
57297;SDS011;43147;50.972;18.210;2022-11-18T16:46:28;53.70;;;22.60;;